sensor_id;sensor_type;location;lat;lon;timestamp;P1;P2;P0
76661;PMS5003;65579;45.534;6.212;2022-12-29T00:01:57;65;55;
76661;PMS5003;65579;45.534;6.212;2022-12-29T00:04:22;59;53;
76661;PMS5003;65579;45.534;6.212;2022-12-29T00:06:48;56;50;
76661;PMS5003;65579;45.534;6.212;2022-12-29T00:09:14;75;62;
76661;PMS5003;65579;45.534;6.212;2022-12-29T00:11:38;65;57;
76661;PMS5003;65579;45.534;6.212;2022-12-29T00:14:04;79;75;
76661;PMS5003;65579;45.534;6.212;2022-12-29T00:16:30;84;72;
76661;PMS5003;65579;45.534;6.212;2022-12-29T00:18:56;54;49;
76661;PMS5003;65579;45.534;6.212;2022-12-29T00:21:22;55;45;
76661;PMS5003;65579;45.534;6.212;2022-12-29T00:23:47;66;63;
76661;PMS5003;65579;45.534;6.212;2022-12-29T00:26:12;108;99;
76661;PMS5003;65579;45.534;6.212;2022-12-29T00:28:38;74;62;
76661;PMS5003;65579;45.534;6.212;2022-12-29T00:31:04;68;61;
76661;PMS5003;65579;45.534;6.212;2022-12-29T00:33:30;59;55;
76661;PMS5003;65579;45.534;6.212;2022-12-29T00:35:56;58;53;
76661;PMS5003;65579;45.534;6.212;2022-12-29T00:38:20;69;61;
76661;PMS5003;65579;45.534;6.212;2022-12-29T00:40:45;75;66;
76661;PMS5003;65579;45.534;6.212;2022-12-29T00:43:11;60;55;
76661;PMS5003;65579;45.534;6.212;2022-12-29T00:45:39;64;55;
76661;PMS5003;65579;45.534;6.212;2022-12-29T00:48:03;63;56;
76661;PMS5003;65579;45.534;6.212;2022-12-29T00:50:28;82;70;
76661;PMS5003;65579;45.534;6.212;2022-12-29T00:52:54;48;41;
76661;PMS5003;65579;45.534;6.212;2022-12-29T00:55:20;32;32;
76661;PMS5003;65579;45.534;6.212;2022-12-29T00:57:45;53;50;
76661;PMS5003;65579;45.534;6.212;2022-12-29T01:00:11;59;52;
76661;PMS5003;65579;45.534;6.212;2022-12-29T01:02:36;59;54;
76661;PMS5003;65579;45.534;6.212;2022-12-29T01:05:01;65;63;
76661;PMS5003;65579;45.534;6.212;2022-12-29T01:07:26;63;58;
76661;PMS5003;65579;45.534;6.212;2022-12-29T01:09:51;63;55;
76661;PMS5003;65579;45.534;6.212;2022-12-29T01:12:17;59;56;
76661;PMS5003;65579;45.534;6.212;2022-12-29T01:14:43;48;44;
76661;PMS5003;65579;45.534;6.212;2022-12-29T01:17:08;52;47;
76661;PMS5003;65579;45.534;6.212;2022-12-29T01:19:33;49;45;
76661;PMS5003;65579;45.534;6.212;2022-12-29T01:21:59;50;44;
76661;PMS5003;65579;45.534;6.212;2022-12-29T01:24:24;55;52;
76661;PMS5003;65579;45.534;6.212;2022-12-29T01:26:50;60;57;
76661;PMS5003;65579;45.534;6.212;2022-12-29T01:29:16;61;53;
76661;PMS5003;65579;45.534;6.212;2022-12-29T01:31:41;56;53;
76661;PMS5003;65579;45.534;6.212;2022-12-29T01:34:07;52;50;
76661;PMS5003;65579;45.534;6.212;2022-12-29T01:36:33;42;38;
76661;PMS5003;65579;45.534;6.212;2022-12-29T01:38:58;46;41;
76661;PMS5003;65579;45.534;6.212;2022-12-29T01:41:23;57;53;
76661;PMS5003;65579;45.534;6.212;2022-12-29T01:43:49;42;41;
76661;PMS5003;65579;45.534;6.212;2022-12-29T01:46:17;34;29;
76661;PMS5003;65579;45.534;6.212;2022-12-29T01:48:40;43;36;
76661;PMS5003;65579;45.534;6.212;2022-12-29T01:51:05;52;51;
76661;PMS5003;65579;45.534;6.212;2022-12-29T01:53:32;54;51;
76661;PMS5003;65579;45.534;6.212;2022-12-29T01:55:58;45;44;
76661;PMS5003;65579;45.534;6.212;2022-12-29T01:58:22;46;42;
76661;PMS5003;65579;45.534;6.212;2022-12-29T02:00:47;44;42;
76661;PMS5003;65579;45.534;6.212;2022-12-29T02:03:12;40;37;
76661;PMS5003;65579;45.534;6.212;2022-12-29T02:05:39;51;37;
76661;PMS5003;65579;45.534;6.212;2022-12-29T02:08:04;40;37;
76661;PMS5003;65579;45.534;6.212;2022-12-29T02:10:29;42;40;
76661;PMS5003;65579;45.534;6.212;2022-12-29T02:12:54;42;38;
76661;PMS5003;65579;45.534;6.212;2022-12-29T02:15:20;33;33;
76661;PMS5003;65579;45.534;6.212;2022-12-29T02:17:50;44;34;
76661;PMS5003;65579;45.534;6.212;2022-12-29T02:20:16;38;37;
76661;PMS5003;65579;45.534;6.212;2022-12-29T02:22:37;36;31;
76661;PMS5003;65579;45.534;6.212;2022-12-29T02:29:58;31;30;
76661;PMS5003;65579;45.534;6.212;2022-12-29T02:32:18;29;28;
76661;PMS5003;65579;45.534;6.212;2022-12-29T02:34:45;29;29;
76661;PMS5003;65579;45.534;6.212;2022-12-29T02:37:17;47;38;
76661;PMS5003;65579;45.534;6.212;2022-12-29T02:39:34;28;28;
76661;PMS5003;65579;45.534;6.212;2022-12-29T02:42:00;34;34;
76661;PMS5003;65579;45.534;6.212;2022-12-29T02:44:25;27;27;
76661;PMS5003;65579;45.534;6.212;2022-12-29T02:46:51;32;29;
76661;PMS5003;65579;45.534;6.212;2022-12-29T02:49:15;36;33;
76661;PMS5003;65579;45.534;6.212;2022-12-29T02:51:43;35;34;
76661;PMS5003;65579;45.534;6.212;2022-12-29T02:54:05;32;29;
76661;PMS5003;65579;45.534;6.212;2022-12-29T02:56:31;29;24;
76661;PMS5003;65579;45.534;6.212;2022-12-29T02:58:57;35;31;
76661;PMS5003;65579;45.534;6.212;2022-12-29T03:01:23;43;33;
76661;PMS5003;65579;45.534;6.212;2022-12-29T03:03:48;34;32;
76661;PMS5003;65579;45.534;6.212;2022-12-29T03:06:16;43;39;
76661;PMS5003;65579;45.534;6.212;2022-12-29T03:08:39;40;32;
76661;PMS5003;65579;45.534;6.212;2022-12-29T03:11:04;37;32;
76661;PMS5003;65579;45.534;6.212;2022-12-29T03:13:29;39;32;
76661;PMS5003;65579;45.534;6.212;2022-12-29T03:15:55;35;32;
76661;PMS5003;65579;45.534;6.212;2022-12-29T03:18:21;32;27;
76661;PMS5003;65579;45.534;6.212;2022-12-29T03:20:47;27;20;
76661;PMS5003;65579;45.534;6.212;2022-12-29T03:23:11;27;25;
76661;PMS5003;65579;45.534;6.212;2022-12-29T03:25:38;24;19;
76661;PMS5003;65579;45.534;6.212;2022-12-29T03:28:03;34;32;
76661;PMS5003;65579;45.534;6.212;2022-12-29T03:30:28;28;27;
76661;PMS5003;65579;45.534;6.212;2022-12-29T03:32:54;33;32;
76661;PMS5003;65579;45.534;6.212;2022-12-29T03:35:19;29;27;
76661;PMS5003;65579;45.534;6.212;2022-12-29T03:37:45;27;24;
76661;PMS5003;65579;45.534;6.212;2022-12-29T03:40:10;30;29;
76661;PMS5003;65579;45.534;6.212;2022-12-29T03:42:35;23;19;
76661;PMS5003;65579;45.534;6.212;2022-12-29T03:45:00;36;31;
76661;PMS5003;65579;45.534;6.212;2022-12-29T03:47:26;29;27;
76661;PMS5003;65579;45.534;6.212;2022-12-29T03:49:51;19;19;
76661;PMS5003;65579;45.534;6.212;2022-12-29T03:52:17;18;18;
76661;PMS5003;65579;45.534;6.212;2022-12-29T03:54:43;19;19;
76661;PMS5003;65579;45.534;6.212;2022-12-29T03:57:08;17;12;
76661;PMS5003;65579;45.534;6.212;2022-12-29T03:59:33;22;18;
76661;PMS5003;65579;45.534;6.212;2022-12-29T04:01:59;20;18;
76661;PMS5003;65579;45.534;6.212;2022-12-29T04:04:24;19;19;
76661;PMS5003;65579;45.534;6.212;2022-12-29T04:06:50;25;25;
76661;PMS5003;65579;45.534;6.212;2022-12-29T04:09:15;24;23;
76661;PMS5003;65579;45.534;6.212;2022-12-29T04:11:40;24;20;
76661;PMS5003;65579;45.534;6.212;2022-12-29T04:14:05;18;18;
76661;PMS5003;65579;45.534;6.212;2022-12-29T04:16:31;18;18;
76661;PMS5003;65579;45.534;6.212;2022-12-29T04:18:56;19;15;
76661;PMS5003;65579;45.534;6.212;2022-12-29T04:21:21;20;20;
76661;PMS5003;65579;45.534;6.212;2022-12-29T04:23:47;20;20;
76661;PMS5003;65579;45.534;6.212;2022-12-29T04:26:12;24;22;
76661;PMS5003;65579;45.534;6.212;2022-12-29T04:28:37;18;18;
76661;PMS5003;65579;45.534;6.212;2022-12-29T04:31:02;27;22;
76661;PMS5003;65579;45.534;6.212;2022-12-29T04:33:28;29;29;
76661;PMS5003;65579;45.534;6.212;2022-12-29T04:35:53;23;20;
76661;PMS5003;65579;45.534;6.212;2022-12-29T04:38:19;20;18;
76661;PMS5003;65579;45.534;6.212;2022-12-29T04:40:45;24;24;
76661;PMS5003;65579;45.534;6.212;2022-12-29T04:43:10;22;20;
76661;PMS5003;65579;45.534;6.212;2022-12-29T04:45:35;23;20;
76661;PMS5003;65579;45.534;6.212;2022-12-29T04:48:01;14;14;
76661;PMS5003;65579;45.534;6.212;2022-12-29T04:50:26;19;19;
76661;PMS5003;65579;45.534;6.212;2022-12-29T04:52:52;19;18;
76661;PMS5003;65579;45.534;6.212;2022-12-29T04:55:18;39;34;
76661;PMS5003;65579;45.534;6.212;2022-12-29T04:57:43;31;30;
76661;PMS5003;65579;45.534;6.212;2022-12-29T05:00:09;38;35;
76661;PMS5003;65579;45.534;6.212;2022-12-29T05:02:34;34;32;
76661;PMS5003;65579;45.534;6.212;2022-12-29T05:04:59;30;25;
76661;PMS5003;65579;45.534;6.212;2022-12-29T05:07:24;24;24;
76661;PMS5003;65579;45.534;6.212;2022-12-29T05:09:50;24;24;
76661;PMS5003;65579;45.534;6.212;2022-12-29T05:12:16;26;26;
76661;PMS5003;65579;45.534;6.212;2022-12-29T05:14:41;32;29;
76661;PMS5003;65579;45.534;6.212;2022-12-29T05:17:07;38;38;
76661;PMS5003;65579;45.534;6.212;2022-12-29T05:19:32;33;25;
76661;PMS5003;65579;45.534;6.212;2022-12-29T05:21:58;28;28;
76661;PMS5003;65579;45.534;6.212;2022-12-29T05:24:23;36;34;
76661;PMS5003;65579;45.534;6.212;2022-12-29T05:26:48;26;24;
76661;PMS5003;65579;45.534;6.212;2022-12-29T05:29:13;29;20;
76661;PMS5003;65579;45.534;6.212;2022-12-29T05:31:39;26;23;
76661;PMS5003;65579;45.534;6.212;2022-12-29T05:34:05;23;20;
76661;PMS5003;65579;45.534;6.212;2022-12-29T05:36:29;25;25;
76661;PMS5003;65579;45.534;6.212;2022-12-29T05:38:55;25;25;
76661;PMS5003;65579;45.534;6.212;2022-12-29T05:41:20;26;24;
76661;PMS5003;65579;45.534;6.212;2022-12-29T05:43:46;20;20;
76661;PMS5003;65579;45.534;6.212;2022-12-29T05:46:12;24;20;
76661;PMS5003;65579;45.534;6.212;2022-12-29T05:48:37;34;31;
76661;PMS5003;65579;45.534;6.212;2022-12-29T05:51:03;26;26;
76661;PMS5003;65579;45.534;6.212;2022-12-29T05:53:28;34;30;
76661;PMS5003;65579;45.534;6.212;2022-12-29T05:55:53;27;25;
76661;PMS5003;65579;45.534;6.212;2022-12-29T05:58:19;32;30;
76661;PMS5003;65579;45.534;6.212;2022-12-29T06:00:45;32;30;
76661;PMS5003;65579;45.534;6.212;2022-12-29T06:03:10;30;29;
76661;PMS5003;65579;45.534;6.212;2022-12-29T06:05:35;33;33;
76661;PMS5003;65579;45.534;6.212;2022-12-29T06:08:01;27;27;
76661;PMS5003;65579;45.534;6.212;2022-12-29T06:10:26;27;27;
76661;PMS5003;65579;45.534;6.212;2022-12-29T06:12:53;98;94;
76661;PMS5003;65579;45.534;6.212;2022-12-29T06:15:18;33;33;
76661;PMS5003;65579;45.534;6.212;2022-12-29T06:17:43;33;30;
76661;PMS5003;65579;45.534;6.212;2022-12-29T06:20:09;38;34;
76661;PMS5003;65579;45.534;6.212;2022-12-29T06:22:34;32;29;
76661;PMS5003;65579;45.534;6.212;2022-12-29T06:25:00;21;20;
76661;PMS5003;65579;45.534;6.212;2022-12-29T06:27:26;18;16;
76661;PMS5003;65579;45.534;6.212;2022-12-29T06:29:51;13;12;
76661;PMS5003;65579;45.534;6.212;2022-12-29T06:32:17;16;16;
76661;PMS5003;65579;45.534;6.212;2022-12-29T06:34:43;10;8;
76661;PMS5003;65579;45.534;6.212;2022-12-29T06:37:08;16;15;
76661;PMS5003;65579;45.534;6.212;2022-12-29T06:39:34;33;28;
76661;PMS5003;65579;45.534;6.212;2022-12-29T06:41:59;37;34;
76661;PMS5003;65579;45.534;6.212;2022-12-29T06:44:25;28;26;
76661;PMS5003;65579;45.534;6.212;2022-12-29T06:46:50;32;31;
76661;PMS5003;65579;45.534;6.212;2022-12-29T06:49:15;30;25;
76661;PMS5003;65579;45.534;6.212;2022-12-29T06:51:40;24;22;
76661;PMS5003;65579;45.534;6.212;2022-12-29T06:54:06;18;16;
76661;PMS5003;65579;45.534;6.212;2022-12-29T06:56:31;21;19;
76661;PMS5003;65579;45.534;6.212;2022-12-29T06:58:56;24;22;
76661;PMS5003;65579;45.534;6.212;2022-12-29T07:01:22;30;26;
76661;PMS5003;65579;45.534;6.212;2022-12-29T07:03:48;26;26;
76661;PMS5003;65579;45.534;6.212;2022-12-29T07:06:13;21;21;
76661;PMS5003;65579;45.534;6.212;2022-12-29T07:08:40;28;25;
76661;PMS5003;65579;45.534;6.212;2022-12-29T07:11:04;26;26;
76661;PMS5003;65579;45.534;6.212;2022-12-29T07:13:29;21;20;
76661;PMS5003;65579;45.534;6.212;2022-12-29T07:15:54;24;24;
76661;PMS5003;65579;45.534;6.212;2022-12-29T07:18:20;33;33;
76661;PMS5003;65579;45.534;6.212;2022-12-29T07:20:45;24;22;
76661;PMS5003;65579;45.534;6.212;2022-12-29T07:23:11;32;30;
76661;PMS5003;65579;45.534;6.212;2022-12-29T07:25:36;51;44;
76661;PMS5003;65579;45.534;6.212;2022-12-29T07:28:02;49;48;
76661;PMS5003;65579;45.534;6.212;2022-12-29T07:30:27;54;46;
76661;PMS5003;65579;45.534;6.212;2022-12-29T07:32:53;27;27;
76661;PMS5003;65579;45.534;6.212;2022-12-29T07:35:18;40;36;
76661;PMS5003;65579;45.534;6.212;2022-12-29T07:37:43;38;34;
76661;PMS5003;65579;45.534;6.212;2022-12-29T07:40:10;28;27;
76661;PMS5003;65579;45.534;6.212;2022-12-29T07:42:34;27;24;
76661;PMS5003;65579;45.534;6.212;2022-12-29T07:45:00;29;25;
76661;PMS5003;65579;45.534;6.212;2022-12-29T07:47:25;31;31;
76661;PMS5003;65579;45.534;6.212;2022-12-29T07:49:51;30;22;
76661;PMS5003;65579;45.534;6.212;2022-12-29T07:52:17;28;28;
76661;PMS5003;65579;45.534;6.212;2022-12-29T07:54:41;30;25;
76661;PMS5003;65579;45.534;6.212;2022-12-29T07:57:07;28;26;
76661;PMS5003;65579;45.534;6.212;2022-12-29T07:59:32;23;19;
76661;PMS5003;65579;45.534;6.212;2022-12-29T08:01:57;36;32;
76661;PMS5003;65579;45.534;6.212;2022-12-29T08:04:23;37;36;
76661;PMS5003;65579;45.534;6.212;2022-12-29T08:06:48;39;39;
76661;PMS5003;65579;45.534;6.212;2022-12-29T08:09:14;65;60;
76661;PMS5003;65579;45.534;6.212;2022-12-29T08:11:40;72;66;
76661;PMS5003;65579;45.534;6.212;2022-12-29T08:14:05;69;65;
76661;PMS5003;65579;45.534;6.212;2022-12-29T08:16:31;51;47;
76661;PMS5003;65579;45.534;6.212;2022-12-29T08:18:57;35;34;
76661;PMS5003;65579;45.534;6.212;2022-12-29T08:21:22;36;33;
76661;PMS5003;65579;45.534;6.212;2022-12-29T08:23:47;33;31;
76661;PMS5003;65579;45.534;6.212;2022-12-29T08:26:13;36;36;
76661;PMS5003;65579;45.534;6.212;2022-12-29T08:28:38;33;30;
76661;PMS5003;65579;45.534;6.212;2022-12-29T08:31:06;39;37;
76661;PMS5003;65579;45.534;6.212;2022-12-29T08:33:30;27;27;
76661;PMS5003;65579;45.534;6.212;2022-12-29T08:35:58;34;31;
76661;PMS5003;65579;45.534;6.212;2022-12-29T08:38:21;26;22;
76661;PMS5003;65579;45.534;6.212;2022-12-29T08:40:45;18;18;
76661;PMS5003;65579;45.534;6.212;2022-12-29T08:43:11;25;22;
76661;PMS5003;65579;45.534;6.212;2022-12-29T08:45:36;37;36;
76661;PMS5003;65579;45.534;6.212;2022-12-29T08:48:03;28;24;
76661;PMS5003;65579;45.534;6.212;2022-12-29T08:50:28;37;31;
76661;PMS5003;65579;45.534;6.212;2022-12-29T08:52:53;32;26;
76661;PMS5003;65579;45.534;6.212;2022-12-29T08:55:19;33;27;
76661;PMS5003;65579;45.534;6.212;2022-12-29T08:57:44;27;26;
76661;PMS5003;65579;45.534;6.212;2022-12-29T09:00:10;44;37;
76661;PMS5003;65579;45.534;6.212;2022-12-29T09:02:36;39;34;
76661;PMS5003;65579;45.534;6.212;2022-12-29T09:05:02;41;39;
76661;PMS5003;65579;45.534;6.212;2022-12-29T09:07:27;34;32;
76661;PMS5003;65579;45.534;6.212;2022-12-29T09:09:52;42;40;
76661;PMS5003;65579;45.534;6.212;2022-12-29T09:12:17;40;40;
76661;PMS5003;65579;45.534;6.212;2022-12-29T09:14:43;40;38;
76661;PMS5003;65579;45.534;6.212;2022-12-29T09:17:09;28;27;
76661;PMS5003;65579;45.534;6.212;2022-12-29T09:19:34;27;26;
76661;PMS5003;65579;45.534;6.212;2022-12-29T09:22:00;32;27;
76661;PMS5003;65579;45.534;6.212;2022-12-29T09:24:25;24;24;
76661;PMS5003;65579;45.534;6.212;2022-12-29T09:26:51;31;30;
76661;PMS5003;65579;45.534;6.212;2022-12-29T09:29:16;37;37;
76661;PMS5003;65579;45.534;6.212;2022-12-29T09:31:42;42;39;
76661;PMS5003;65579;45.534;6.212;2022-12-29T09:34:08;51;47;
76661;PMS5003;65579;45.534;6.212;2022-12-29T09:36:34;41;37;
76661;PMS5003;65579;45.534;6.212;2022-12-29T09:38:59;40;35;
76661;PMS5003;65579;45.534;6.212;2022-12-29T09:41:26;32;32;
76661;PMS5003;65579;45.534;6.212;2022-12-29T09:43:56;44;41;
76661;PMS5003;65579;45.534;6.212;2022-12-29T09:46:17;328;229;
76661;PMS5003;65579;45.534;6.212;2022-12-29T09:48:41;256;187;
76661;PMS5003;65579;45.534;6.212;2022-12-29T09:51:08;156;123;
76661;PMS5003;65579;45.534;6.212;2022-12-29T09:53:33;261;188;
76661;PMS5003;65579;45.534;6.212;2022-12-29T09:55:58;257;185;
76661;PMS5003;65579;45.534;6.212;2022-12-29T09:58:24;122;99;
76661;PMS5003;65579;45.534;6.212;2022-12-29T10:00:49;117;89;
76661;PMS5003;65579;45.534;6.212;2022-12-29T10:03:13;107;84;
76661;PMS5003;65579;45.534;6.212;2022-12-29T10:05:40;135;103;
76661;PMS5003;65579;45.534;6.212;2022-12-29T10:08:10;47;42;
76661;PMS5003;65579;45.534;6.212;2022-12-29T10:10:33;38;34;
76661;PMS5003;65579;45.534;6.212;2022-12-29T10:13:00;36;30;
76661;PMS5003;65579;45.534;6.212;2022-12-29T10:15:26;51;42;
76661;PMS5003;65579;45.534;6.212;2022-12-29T10:17:48;32;31;
76661;PMS5003;65579;45.534;6.212;2022-12-29T10:20:16;34;34;
76661;PMS5003;65579;45.534;6.212;2022-12-29T10:22:40;27;27;
76661;PMS5003;65579;45.534;6.212;2022-12-29T10:25:06;27;23;
76661;PMS5003;65579;45.534;6.212;2022-12-29T10:27:29;23;22;
76661;PMS5003;65579;45.534;6.212;2022-12-29T10:29:55;25;25;
76661;PMS5003;65579;45.534;6.212;2022-12-29T10:32:23;29;25;
76661;PMS5003;65579;45.534;6.212;2022-12-29T10:34:45;25;25;
76661;PMS5003;65579;45.534;6.212;2022-12-29T10:37:11;32;30;
76661;PMS5003;65579;45.534;6.212;2022-12-29T10:39:37;23;22;
76661;PMS5003;65579;45.534;6.212;2022-12-29T10:42:04;31;25;
76661;PMS5003;65579;45.534;6.212;2022-12-29T10:44:27;24;23;
76661;PMS5003;65579;45.534;6.212;2022-12-29T10:46:55;51;50;
76661;PMS5003;65579;45.534;6.212;2022-12-29T10:49:17;31;29;
76661;PMS5003;65579;45.534;6.212;2022-12-29T10:51:43;29;25;
76661;PMS5003;65579;45.534;6.212;2022-12-29T10:54:10;29;25;
76661;PMS5003;65579;45.534;6.212;2022-12-29T10:56:34;22;19;
76661;PMS5003;65579;45.534;6.212;2022-12-29T10:59:01;17;17;
76661;PMS5003;65579;45.534;6.212;2022-12-29T11:01:24;24;20;
76661;PMS5003;65579;45.534;6.212;2022-12-29T11:03:54;20;17;
76661;PMS5003;65579;45.534;6.212;2022-12-29T11:06:17;16;16;
76661;PMS5003;65579;45.534;6.212;2022-12-29T11:08:46;13;13;
76661;PMS5003;65579;45.534;6.212;2022-12-29T11:11:06;14;13;
76661;PMS5003;65579;45.534;6.212;2022-12-29T11:13:31;27;24;
76661;PMS5003;65579;45.534;6.212;2022-12-29T11:15:56;17;15;
76661;PMS5003;65579;45.534;6.212;2022-12-29T11:18:22;18;17;
76661;PMS5003;65579;45.534;6.212;2022-12-29T11:20:47;18;18;
76661;PMS5003;65579;45.534;6.212;2022-12-29T11:25:37;19;18;
76661;PMS5003;65579;45.534;6.212;2022-12-29T11:28:12;29;27;
76661;PMS5003;65579;45.534;6.212;2022-12-29T11:30:29;18;18;
76661;PMS5003;65579;45.534;6.212;2022-12-29T11:32:54;28;23;
76661;PMS5003;65579;45.534;6.212;2022-12-29T11:37:45;27;24;
76661;PMS5003;65579;45.534;6.212;2022-12-29T11:40:15;22;21;
76661;PMS5003;65579;45.534;6.212;2022-12-29T11:42:36;27;22;
76661;PMS5003;65579;45.534;6.212;2022-12-29T11:45:06;22;19;
76661;PMS5003;65579;45.534;6.212;2022-12-29T11:47:27;20;18;
76661;PMS5003;65579;45.534;6.212;2022-12-29T11:49:52;19;17;
76661;PMS5003;65579;45.534;6.212;2022-12-29T11:52:20;19;17;
76661;PMS5003;65579;45.534;6.212;2022-12-29T11:54:42;17;17;
76661;PMS5003;65579;45.534;6.212;2022-12-29T11:57:09;17;17;
76661;PMS5003;65579;45.534;6.212;2022-12-29T11:59:37;26;22;
76661;PMS5003;65579;45.534;6.212;2022-12-29T12:01:58;11;11;
76661;PMS5003;65579;45.534;6.212;2022-12-29T12:04:24;14;14;
76661;PMS5003;65579;45.534;6.212;2022-12-29T12:06:52;18;15;
76661;PMS5003;65579;45.534;6.212;2022-12-29T12:09:16;15;15;
76661;PMS5003;65579;45.534;6.212;2022-12-29T12:11:40;12;12;
76661;PMS5003;65579;45.534;6.212;2022-12-29T12:14:06;18;17;
76661;PMS5003;65579;45.534;6.212;2022-12-29T12:16:32;30;26;
76661;PMS5003;65579;45.534;6.212;2022-12-29T12:18:56;12;11;
76661;PMS5003;65579;45.534;6.212;2022-12-29T12:21:23;12;12;
76661;PMS5003;65579;45.534;6.212;2022-12-29T12:26:12;11;11;
76661;PMS5003;65579;45.534;6.212;2022-12-29T12:28:37;12;11;
76661;PMS5003;65579;45.534;6.212;2022-12-29T12:31:02;11;11;
76661;PMS5003;65579;45.534;6.212;2022-12-29T12:33:29;19;15;
76661;PMS5003;65579;45.534;6.212;2022-12-29T12:36:00;32;26;
76661;PMS5003;65579;45.534;6.212;2022-12-29T12:38:21;21;21;
76661;PMS5003;65579;45.534;6.212;2022-12-29T12:40:49;28;27;
76661;PMS5003;65579;45.534;6.212;2022-12-29T12:43:16;25;23;
76661;PMS5003;65579;45.534;6.212;2022-12-29T12:45:38;35;31;
76661;PMS5003;65579;45.534;6.212;2022-12-29T12:48:04;29;29;
76661;PMS5003;65579;45.534;6.212;2022-12-29T12:50:31;27;27;
76661;PMS5003;65579;45.534;6.212;2022-12-29T12:55:26;22;22;
76661;PMS5003;65579;45.534;6.212;2022-12-29T12:57:46;16;16;
76661;PMS5003;65579;45.534;6.212;2022-12-29T13:00:09;14;13;
76661;PMS5003;65579;45.534;6.212;2022-12-29T13:02:36;14;14;
76661;PMS5003;65579;45.534;6.212;2022-12-29T13:05:06;10;10;
76661;PMS5003;65579;45.534;6.212;2022-12-29T13:07:27;13;13;
76661;PMS5003;65579;45.534;6.212;2022-12-29T13:09:56;17;17;
76661;PMS5003;65579;45.534;6.212;2022-12-29T13:12:19;19;19;
76661;PMS5003;65579;45.534;6.212;2022-12-29T13:14:45;10;10;
76661;PMS5003;65579;45.534;6.212;2022-12-29T13:17:09;15;14;
76661;PMS5003;65579;45.534;6.212;2022-12-29T13:19:34;11;11;
76661;PMS5003;65579;45.534;6.212;2022-12-29T13:22:01;12;12;
76661;PMS5003;65579;45.534;6.212;2022-12-29T13:24:25;10;10;
76661;PMS5003;65579;45.534;6.212;2022-12-29T13:26:50;9;9;
76661;PMS5003;65579;45.534;6.212;2022-12-29T13:29:15;13;13;
76661;PMS5003;65579;45.534;6.212;2022-12-29T13:31:42;10;10;
76661;PMS5003;65579;45.534;6.212;2022-12-29T13:34:10;14;10;
76661;PMS5003;65579;45.534;6.212;2022-12-29T13:36:33;9;9;
76661;PMS5003;65579;45.534;6.212;2022-12-29T13:39:00;11;10;
76661;PMS5003;65579;45.534;6.212;2022-12-29T13:41:24;10;10;
76661;PMS5003;65579;45.534;6.212;2022-12-29T13:43:47;12;11;
76661;PMS5003;65579;45.534;6.212;2022-12-29T13:46:13;9;9;
76661;PMS5003;65579;45.534;6.212;2022-12-29T13:48:39;15;14;
76661;PMS5003;65579;45.534;6.212;2022-12-29T13:51:03;16;16;
76661;PMS5003;65579;45.534;6.212;2022-12-29T13:53:30;15;13;
76661;PMS5003;65579;45.534;6.212;2022-12-29T13:55:55;21;19;
76661;PMS5003;65579;45.534;6.212;2022-12-29T13:58:20;12;12;
76661;PMS5003;65579;45.534;6.212;2022-12-29T14:00:46;13;13;
76661;PMS5003;65579;45.534;6.212;2022-12-29T14:03:17;12;12;
76661;PMS5003;65579;45.534;6.212;2022-12-29T14:05:35;13;13;
76661;PMS5003;65579;45.534;6.212;2022-12-29T14:08:02;12;12;
76661;PMS5003;65579;45.534;6.212;2022-12-29T14:10:27;15;15;
76661;PMS5003;65579;45.534;6.212;2022-12-29T14:12:53;25;24;
76661;PMS5003;65579;45.534;6.212;2022-12-29T14:15:21;14;12;
76661;PMS5003;65579;45.534;6.212;2022-12-29T14:17:44;14;13;
76661;PMS5003;65579;45.534;6.212;2022-12-29T14:22:35;17;15;
76661;PMS5003;65579;45.534;6.212;2022-12-29T14:25:01;20;16;
76661;PMS5003;65579;45.534;6.212;2022-12-29T14:29:52;15;15;
76661;PMS5003;65579;45.534;6.212;2022-12-29T14:34:44;24;24;
76661;PMS5003;65579;45.534;6.212;2022-12-29T14:39:36;14;13;
76661;PMS5003;65579;45.534;6.212;2022-12-29T14:42:00;18;16;
76661;PMS5003;65579;45.534;6.212;2022-12-29T14:44:26;18;17;
76661;PMS5003;65579;45.534;6.212;2022-12-29T14:46:55;17;17;
76661;PMS5003;65579;45.534;6.212;2022-12-29T14:49:18;21;20;
76661;PMS5003;65579;45.534;6.212;2022-12-29T14:51:42;17;17;
76661;PMS5003;65579;45.534;6.212;2022-12-29T14:56:39;20;20;
76661;PMS5003;65579;45.534;6.212;2022-12-29T14:59:00;16;16;
76661;PMS5003;65579;45.534;6.212;2022-12-29T15:01:27;17;16;
76661;PMS5003;65579;45.534;6.212;2022-12-29T15:03:50;17;14;
76661;PMS5003;65579;45.534;6.212;2022-12-29T15:06:15;11;11;
76661;PMS5003;65579;45.534;6.212;2022-12-29T15:08:42;19;18;
76661;PMS5003;65579;45.534;6.212;2022-12-29T15:11:06;17;16;
76661;PMS5003;65579;45.534;6.212;2022-12-29T15:13:33;14;12;
76661;PMS5003;65579;45.534;6.212;2022-12-29T15:15:56;13;12;
76661;PMS5003;65579;45.534;6.212;2022-12-29T15:18:22;12;12;
76661;PMS5003;65579;45.534;6.212;2022-12-29T15:20:46;11;10;
76661;PMS5003;65579;45.534;6.212;2022-12-29T15:23:12;11;10;
76661;PMS5003;65579;45.534;6.212;2022-12-29T15:25:37;9;9;
76661;PMS5003;65579;45.534;6.212;2022-12-29T15:28:03;11;11;
76661;PMS5003;65579;45.534;6.212;2022-12-29T15:30:27;8;8;
76661;PMS5003;65579;45.534;6.212;2022-12-29T15:32:52;10;8;
76661;PMS5003;65579;45.534;6.212;2022-12-29T15:35:25;10;10;
76661;PMS5003;65579;45.534;6.212;2022-12-29T15:37:43;12;9;
76661;PMS5003;65579;45.534;6.212;2022-12-29T15:42:43;11;11;
76661;PMS5003;65579;45.534;6.212;2022-12-29T15:45:00;10;10;
76661;PMS5003;65579;45.534;6.212;2022-12-29T15:47:25;9;9;
76661;PMS5003;65579;45.534;6.212;2022-12-29T15:49:52;13;12;
76661;PMS5003;65579;45.534;6.212;2022-12-29T15:52:17;14;11;
76661;PMS5003;65579;45.534;6.212;2022-12-29T15:54:42;16;15;
76661;PMS5003;65579;45.534;6.212;2022-12-29T15:57:10;40;36;
76661;PMS5003;65579;45.534;6.212;2022-12-29T15:59:33;40;39;
76661;PMS5003;65579;45.534;6.212;2022-12-29T16:01:58;52;46;
76661;PMS5003;65579;45.534;6.212;2022-12-29T16:04:23;45;38;
76661;PMS5003;65579;45.534;6.212;2022-12-29T16:06:54;37;30;
76661;PMS5003;65579;45.534;6.212;2022-12-29T16:09:15;36;31;
76661;PMS5003;65579;45.534;6.212;2022-12-29T16:11:40;130;124;
76661;PMS5003;65579;45.534;6.212;2022-12-29T16:14:06;106;101;
76661;PMS5003;65579;45.534;6.212;2022-12-29T16:16:32;133;126;
76661;PMS5003;65579;45.534;6.212;2022-12-29T16:18:56;88;77;
76661;PMS5003;65579;45.534;6.212;2022-12-29T16:21:23;59;52;
76661;PMS5003;65579;45.534;6.212;2022-12-29T16:23:48;50;47;
76661;PMS5003;65579;45.534;6.212;2022-12-29T16:26:14;42;40;
76661;PMS5003;65579;45.534;6.212;2022-12-29T16:28:40;50;48;
76661;PMS5003;65579;45.534;6.212;2022-12-29T16:31:04;50;46;
76661;PMS5003;65579;45.534;6.212;2022-12-29T16:33:33;25;23;